sensor_id;sensor_type;location;lat;lon;timestamp;pressure;altitude;pressure_sealevel;temperature;humidity
57668;BME280;43499;52.366;12.912;2023-05-08T00:00:00;102300.63;;;7.22;85.04
57668;BME280;43499;52.366;12.912;2023-05-08T00:01:06;102279.19;;;7.10;84.79
57668;BME280;43499;52.366;12.912;2023-05-08T00:02:07;102292.25;;;7.10;84.06
57668;BME280;43499;52.366;12.912;2023-05-08T00:03:08;102293.72;;;7.15;84.75
57668;BME280;43499;52.366;12.912;2023-05-08T00:04:09;102292.66;;;7.13;86.26
57668;BME280;43499;52.366;12.912;2023-05-08T00:05:11;102296.00;;;7.12;86.00
57668;BME280;43499;52.366;12.912;2023-05-08T00:06:12;102289.84;;;7.04;85.49
57668;BME280;43499;52.366;12.912;2023-05-08T00:07:13;102287.03;;;7.10;86.37
57668;BME280;43499;52.366;12.912;2023-05-08T00:08:14;102298.41;;;7.10;86.28
57668;BME280;43499;52.366;12.912;2023-05-08T00:09:15;102280.13;;;7.03;85.37
57668;BME280;43499;52.366;12.912;2023-05-08T00:10:16;102290.03;;;7.06;85.26
57668;BME280;43499;52.366;12.912;2023-05-08T00:11:17;102289.09;;;7.05;85.49
57668;BME280;43499;52.366;12.912;2023-05-08T00:12:18;102286.50;;;7.05;86.02
57668;BME280;43499;52.366;12.912;2023-05-08T00:13:19;102296.19;;;7.06;85.87
57668;BME280;43499;52.366;12.912;2023-05-08T00:14:20;102285.94;;;7.01;86.62
57668;BME280;43499;52.366;12.912;2023-05-08T00:15:21;102290.59;;;7.03;86.88
57668;BME280;43499;52.366;12.912;2023-05-08T00:16:22;102294.69;;;7.01;86.14
57668;BME280;43499;52.366;12.912;2023-05-08T00:17:24;102295.06;;;6.97;86.55
57668;BME280;43499;52.366;12.912;2023-05-08T00:18:25;102290.97;;;6.99;85.84
57668;BME280;43499;52.366;12.912;2023-05-08T00:19:26;102292.44;;;6.97;86.08
57668;BME280;43499;52.366;12.912;2023-05-08T00:20:27;102284.25;;;6.87;86.21
57668;BME280;43499;52.366;12.912;2023-05-08T00:21:29;102296.00;;;6.90;86.55
57668;BME280;43499;52.366;12.912;2023-05-08T00:22:30;102295.47;;;6.93;86.64
57668;BME280;43499;52.366;12.912;2023-05-08T00:23:32;102278.47;;;6.82;87.17
57668;BME280;43499;52.366;12.912;2023-05-08T00:24:33;102301.59;;;6.93;87.37
57668;BME280;43499;52.366;12.912;2023-05-08T00:25:34;102298.81;;;6.92;87.55
57668;BME280;43499;52.366;12.912;2023-05-08T00:26:35;102291.91;;;6.92;86.79
57668;BME280;43499;52.366;12.912;2023-05-08T00:27:37;102266.88;;;6.80;87.23
57668;BME280;43499;52.366;12.912;2023-05-08T00:28:38;102293.03;;;6.94;86.95
57668;BME280;43499;52.366;12.912;2023-05-08T00:29:39;102292.28;;;6.88;86.68
57668;BME280;43499;52.366;12.912;2023-05-08T00:30:40;102305.34;;;6.95;86.65
57668;BME280;43499;52.366;12.912;2023-05-08T00:31:42;102284.81;;;6.84;86.83
57668;BME280;43499;52.366;12.912;2023-05-08T00:32:43;102288.34;;;6.85;87.28
57668;BME280;43499;52.366;12.912;2023-05-08T00:33:44;102283.69;;;6.82;88.24
57668;BME280;43499;52.366;12.912;2023-05-08T00:34:45;102288.72;;;6.88;87.97
57668;BME280;43499;52.366;12.912;2023-05-08T00:35:46;102280.34;;;6.83;87.82
57668;BME280;43499;52.366;12.912;2023-05-08T00:36:47;102302.34;;;6.92;88.38
57668;BME280;43499;52.366;12.912;2023-05-08T00:37:48;102285.56;;;6.83;87.91
57668;BME280;43499;52.366;12.912;2023-05-08T00:38:49;102298.28;;;6.87;87.28
57668;BME280;43499;52.366;12.912;2023-05-08T00:39:50;102293.78;;;6.86;87.32
57668;BME280;43499;52.366;12.912;2023-05-08T00:40:51;102297.72;;;6.83;87.54
57668;BME280;43499;52.366;12.912;2023-05-08T00:41:52;102287.78;;;6.80;87.29
57668;BME280;43499;52.366;12.912;2023-05-08T00:42:53;102301.25;;;6.83;87.49
57668;BME280;43499;52.366;12.912;2023-05-08T00:43:54;102305.72;;;6.84;88.07
57668;BME280;43499;52.366;12.912;2023-05-08T00:44:55;102275.50;;;6.72;87.64
57668;BME280;43499;52.366;12.912;2023-05-08T00:45:59;102297.88;;;6.84;87.43
57668;BME280;43499;52.366;12.912;2023-05-08T00:47:01;102303.47;;;6.80;88.25
57668;BME280;43499;52.366;12.912;2023-05-08T00:48:02;102291.72;;;6.76;87.27
57668;BME280;43499;52.366;12.912;2023-05-08T00:49:04;102283.50;;;6.73;87.21
57668;BME280;43499;52.366;12.912;2023-05-08T00:50:06;102298.25;;;6.80;88.29
57668;BME280;43499;52.366;12.912;2023-05-08T00:51:07;102293.59;;;6.77;87.35
57668;BME280;43499;52.366;12.912;2023-05-08T00:52:09;102294.34;;;6.76;87.07
57668;BME280;43499;52.366;12.912;2023-05-08T00:53:10;102274.75;;;6.66;87.47
57668;BME280;43499;52.366;12.912;2023-05-08T00:54:11;102291.56;;;6.75;86.92
57668;BME280;43499;52.366;12.912;2023-05-08T00:55:13;102287.81;;;6.73;87.64
57668;BME280;43499;52.366;12.912;2023-05-08T00:56:15;102296.56;;;6.73;87.26
57668;BME280;43499;52.366;12.912;2023-05-08T00:57:17;102293.22;;;6.74;88.47
57668;BME280;43499;52.366;12.912;2023-05-08T00:58:20;102293.94;;;6.73;87.87
57668;BME280;43499;52.366;12.912;2023-05-08T00:59:23;102294.34;;;6.76;88.22
57668;BME280;43499;52.366;12.912;2023-05-08T01:00:24;102298.09;;;6.71;87.04
57668;BME280;43499;52.366;12.912;2023-05-08T01:01:25;102289.69;;;6.67;86.80
57668;BME280;43499;52.366;12.912;2023-05-08T01:02:27;102288.34;;;6.63;88.25
57668;BME280;43499;52.366;12.912;2023-05-08T01:03:32;102301.44;;;6.70;87.22
57668;BME280;43499;52.366;12.912;2023-05-08T01:04:33;102282.56;;;6.58;87.80
57668;BME280;43499;52.366;12.912;2023-05-08T01:05:35;102280.34;;;6.61;89.15
57668;BME280;43499;52.366;12.912;2023-05-08T01:06:36;102289.09;;;6.62;87.76
57668;BME280;43499;52.366;12.912;2023-05-08T01:07:38;102299.56;;;6.69;87.47
57668;BME280;43499;52.366;12.912;2023-05-08T01:08:39;102287.63;;;6.64;87.39
57668;BME280;43499;52.366;12.912;2023-05-08T01:09:40;102293.78;;;6.64;87.57
57668;BME280;43499;52.366;12.912;2023-05-08T01:11:00;102300.16;;;6.67;87.45
57668;BME280;43499;52.366;12.912;2023-05-08T01:12:16;102290.41;;;6.51;87.46
57668;BME280;43499;52.366;12.912;2023-05-08T01:13:50;102302.16;;;6.62;87.36
57668;BME280;43499;52.366;12.912;2023-05-08T01:15:11;102282.94;;;6.47;88.10
57668;BME280;43499;52.366;12.912;2023-05-08T01:16:16;102320.09;;;6.59;88.38
57668;BME280;43499;52.366;12.912;2023-05-08T01:17:27;102296.78;;;6.53;88.27
57668;BME280;43499;52.366;12.912;2023-05-08T01:18:46;102302.56;;;6.58;88.85
57668;BME280;43499;52.366;12.912;2023-05-08T01:20:13;102296.59;;;6.59;87.86
57668;BME280;43499;52.366;12.912;2023-05-08T01:21:26;102304.97;;;6.56;88.73
57668;BME280;43499;52.366;12.912;2023-05-08T01:24:56;102295.28;;;6.55;87.73
57668;BME280;43499;52.366;12.912;2023-05-08T01:26:36;102303.47;;;6.58;88.23
57668;BME280;43499;52.366;12.912;2023-05-08T01:27:54;102297.34;;;6.58;88.08
57668;BME280;43499;52.366;12.912;2023-05-08T01:30:42;102282.94;;;6.40;87.77
57668;BME280;43499;52.366;12.912;2023-05-08T01:32:21;102299.72;;;6.56;89.59
57668;BME280;43499;52.366;12.912;2023-05-08T01:33:46;102304.22;;;6.50;88.05
57668;BME280;43499;52.366;12.912;2023-05-08T01:35:28;102308.13;;;6.54;88.92
57668;BME280;43499;52.366;12.912;2023-05-08T01:36:40;102313.38;;;6.46;88.66
57668;BME280;43499;52.366;12.912;2023-05-08T01:38:02;102303.84;;;6.47;88.81
57668;BME280;43499;52.366;12.912;2023-05-08T01:39:16;102307.41;;;6.47;88.74
57668;BME280;43499;52.366;12.912;2023-05-08T01:40:28;102310.94;;;6.48;87.64
57668;BME280;43499;52.366;12.912;2023-05-08T01:41:33;102319.50;;;6.47;88.36
57668;BME280;43499;52.366;12.912;2023-05-08T01:43:07;102307.75;;;6.43;87.78
57668;BME280;43499;52.366;12.912;2023-05-08T01:44:17;102313.16;;;6.45;88.99
57668;BME280;43499;52.366;12.912;2023-05-08T01:45:23;102306.63;;;6.41;88.28
57668;BME280;43499;52.366;12.912;2023-05-08T01:46:26;102283.47;;;6.30;88.22
57668;BME280;43499;52.366;12.912;2023-05-08T01:47:29;102298.97;;;6.36;88.35
57668;BME280;43499;52.366;12.912;2023-05-08T01:48:34;102287.41;;;6.33;89.23
57668;BME280;43499;52.366;12.912;2023-05-08T01:49:48;102305.88;;;6.35;88.77
57668;BME280;43499;52.366;12.912;2023-05-08T01:51:04;102297.66;;;6.39;87.34
57668;BME280;43499;52.366;12.912;2023-05-08T01:52:30;102303.09;;;6.41;88.35
57668;BME280;43499;52.366;12.912;2023-05-08T01:53:36;102298.78;;;6.41;87.94
57668;BME280;43499;52.366;12.912;2023-05-08T01:54:46;102293.22;;;6.38;88.17
57668;BME280;43499;52.366;12.912;2023-05-08T01:55:50;102305.31;;;6.38;88.07
57668;BME280;43499;52.366;12.912;2023-05-08T01:56:55;102307.53;;;6.35;87.94
57668;BME280;43499;52.366;12.912;2023-05-08T01:57:58;102312.59;;;6.33;88.01
57668;BME280;43499;52.366;12.912;2023-05-08T01:59:01;102315.22;;;6.33;87.11
57668;BME280;43499;52.366;12.912;2023-05-08T02:00:04;102305.50;;;6.32;88.21
57668;BME280;43499;52.366;12.912;2023-05-08T02:01:12;102305.31;;;6.30;87.60
57668;BME280;43499;52.366;12.912;2023-05-08T02:02:15;102313.91;;;6.29;88.47
57668;BME280;43499;52.366;12.912;2023-05-08T02:03:19;102300.63;;;6.21;87.65
57668;BME280;43499;52.366;12.912;2023-05-08T02:04:21;102315.00;;;6.24;88.49
57668;BME280;43499;52.366;12.912;2023-05-08T02:05:23;102312.38;;;6.24;88.70
57668;BME280;43499;52.366;12.912;2023-05-08T02:06:26;102306.81;;;6.21;88.36
57668;BME280;43499;52.366;12.912;2023-05-08T02:07:29;102303.97;;;6.20;87.77
57668;BME280;43499;52.366;12.912;2023-05-08T02:08:31;102315.56;;;6.22;88.01
57668;BME280;43499;52.366;12.912;2023-05-08T02:09:33;102304.19;;;6.21;88.17
57668;BME280;43499;52.366;12.912;2023-05-08T02:10:36;102293.88;;;6.15;88.98
57668;BME280;43499;52.366;12.912;2023-05-08T02:11:38;102303.06;;;6.19;88.40
57668;BME280;43499;52.366;12.912;2023-05-08T02:12:42;102312.75;;;6.20;88.38
57668;BME280;43499;52.366;12.912;2023-05-08T02:13:46;102305.84;;;6.21;89.31
57668;BME280;43499;52.366;12.912;2023-05-08T02:14:48;102306.03;;;6.22;89.41
57668;BME280;43499;52.366;12.912;2023-05-08T02:15:53;102314.25;;;6.18;88.47
57668;BME280;43499;52.366;12.912;2023-05-08T02:16:56;102309.75;;;6.17;88.67
57668;BME280;43499;52.366;12.912;2023-05-08T02:17:58;102312.16;;;6.08;88.92
57668;BME280;43499;52.366;12.912;2023-05-08T02:19:00;102298.72;;;6.05;88.70
57668;BME280;43499;52.366;12.912;2023-05-08T02:20:03;102306.00;;;6.08;89.41
57668;BME280;43499;52.366;12.912;2023-05-08T02:21:08;102308.41;;;6.06;89.08
57668;BME280;43499;52.366;12.912;2023-05-08T02:22:12;102317.19;;;6.07;89.75
57668;BME280;43499;52.366;12.912;2023-05-08T02:23:17;102316.47;;;6.08;89.82
57668;BME280;43499;52.366;12.912;2023-05-08T02:24:19;102306.00;;;6.08;89.69
57668;BME280;43499;52.366;12.912;2023-05-08T02:25:21;102314.75;;;6.08;89.75
57668;BME280;43499;52.366;12.912;2023-05-08T02:26:24;102318.84;;;6.06;89.48
57668;BME280;43499;52.366;12.912;2023-05-08T02:27:27;102309.91;;;6.04;89.85
57668;BME280;43499;52.366;12.912;2023-05-08T02:28:29;102304.66;;;6.04;90.06
57668;BME280;43499;52.366;12.912;2023-05-08T02:29:33;102299.41;;;5.97;88.56
57668;BME280;43499;52.366;12.912;2023-05-08T02:30:36;102313.84;;;6.08;89.52
57668;BME280;43499;52.366;12.912;2023-05-08T02:31:39;102305.22;;;6.01;88.82
57668;BME280;43499;52.366;12.912;2023-05-08T02:32:42;102309.16;;;6.05;88.89
57668;BME280;43499;52.366;12.912;2023-05-08T02:33:44;102306.19;;;6.02;89.86
57668;BME280;43499;52.366;12.912;2023-05-08T02:34:49;102310.44;;;6.01;89.13
57668;BME280;43499;52.366;12.912;2023-05-08T02:35:53;102298.44;;;5.89;89.37
57668;BME280;43499;52.366;12.912;2023-05-08T02:36:56;102305.75;;;5.92;90.29
57668;BME280;43499;52.366;12.912;2023-05-08T02:38:00;102309.09;;;5.98;90.53
57668;BME280;43499;52.366;12.912;2023-05-08T02:39:02;102309.44;;;5.94;90.07
57668;BME280;43499;52.366;12.912;2023-05-08T02:40:05;102316.19;;;5.92;90.14
57668;BME280;43499;52.366;12.912;2023-05-08T02:41:07;102299.00;;;5.86;91.10
57668;BME280;43499;52.366;12.912;2023-05-08T02:42:10;102316.03;;;5.97;91.79
57668;BME280;43499;52.366;12.912;2023-05-08T02:43:11;102303.66;;;5.89;90.14
57668;BME280;43499;52.366;12.912;2023-05-08T02:44:13;102312.28;;;5.95;89.46
57668;BME280;43499;52.366;12.912;2023-05-08T02:45:14;102319.16;;;5.95;90.19
57668;BME280;43499;52.366;12.912;2023-05-08T02:46:23;102313.00;;;5.94;90.35
57668;BME280;43499;52.366;12.912;2023-05-08T02:47:36;102315.41;;;5.93;89.67
57668;BME280;43499;52.366;12.912;2023-05-08T02:49:07;102312.63;;;5.91;89.43
57668;BME280;43499;52.366;12.912;2023-05-08T02:50:22;102308.88;;;5.89;90.96
57668;BME280;43499;52.366;12.912;2023-05-08T02:53:10;102300.84;;;5.80;89.73
57668;BME280;43499;52.366;12.912;2023-05-08T02:54:19;102317.09;;;5.85;89.21
57668;BME280;43499;52.366;12.912;2023-05-08T02:55:49;102315.41;;;5.85;89.64
57668;BME280;43499;52.366;12.912;2023-05-08T02:56:59;102314.81;;;5.81;89.59
57668;BME280;43499;52.366;12.912;2023-05-08T02:58:21;102322.84;;;5.82;89.88
57668;BME280;43499;52.366;12.912;2023-05-08T02:59:45;102305.09;;;5.72;90.19
57668;BME280;43499;52.366;12.912;2023-05-08T03:00:58;102326.34;;;5.76;90.61
57668;BME280;43499;52.366;12.912;2023-05-08T03:02:14;102301.53;;;5.65;90.75
57668;BME280;43499;52.366;12.912;2023-05-08T03:03:22;102329.72;;;5.75;91.16
57668;BME280;43499;52.366;12.912;2023-05-08T03:04:27;102330.97;;;5.71;91.51
57668;BME280;43499;52.366;12.912;2023-05-08T03:05:33;102314.22;;;5.69;90.98
57668;BME280;43499;52.366;12.912;2023-05-08T03:06:40;102313.84;;;5.66;90.46
57668;BME280;43499;52.366;12.912;2023-05-08T03:07:44;102307.66;;;5.65;90.71
57668;BME280;43499;52.366;12.912;2023-05-08T03:08:47;102326.31;;;5.68;90.57
57668;BME280;43499;52.366;12.912;2023-05-08T03:09:56;102317.72;;;5.62;90.96
57668;BME280;43499;52.366;12.912;2023-05-08T03:11:02;102318.09;;;5.65;90.52
57668;BME280;43499;52.366;12.912;2023-05-08T03:12:13;102317.19;;;5.65;90.05
57668;BME280;43499;52.366;12.912;2023-05-08T03:13:17;102319.97;;;5.66;91.31
57668;BME280;43499;52.366;12.912;2023-05-08T03:14:22;102303.16;;;5.57;91.25
57668;BME280;43499;52.366;12.912;2023-05-08T03:15:32;102322.00;;;5.62;90.89
57668;BME280;43499;52.366;12.912;2023-05-08T03:16:35;102324.81;;;5.63;91.03
57668;BME280;43499;52.366;12.912;2023-05-08T03:17:38;102325.34;;;5.61;90.05
57668;BME280;43499;52.366;12.912;2023-05-08T03:18:51;102322.00;;;5.62;91.00
57668;BME280;43499;52.366;12.912;2023-05-08T03:19:55;102322.56;;;5.59;90.59
57668;BME280;43499;52.366;12.912;2023-05-08T03:20:58;102328.84;;;5.54;91.18
57668;BME280;43499;52.366;12.912;2023-05-08T03:22:00;102315.44;;;5.51;90.78
57668;BME280;43499;52.366;12.912;2023-05-08T03:23:03;102330.34;;;5.52;91.53
57668;BME280;43499;52.366;12.912;2023-05-08T03:24:07;102321.25;;;5.55;92.11
57668;BME280;43499;52.366;12.912;2023-05-08T03:25:10;102318.41;;;5.54;91.27
57668;BME280;43499;52.366;12.912;2023-05-08T03:26:17;102319.53;;;5.49;91.16
57668;BME280;43499;52.366;12.912;2023-05-08T03:27:22;102318.97;;;5.51;90.86
57668;BME280;43499;52.366;12.912;2023-05-08T03:28:25;102341.72;;;5.52;91.52
57668;BME280;43499;52.366;12.912;2023-05-08T03:29:29;102332.75;;;5.50;90.91
57668;BME280;43499;52.366;12.912;2023-05-08T03:30:34;102323.25;;;5.51;91.78
57668;BME280;43499;52.366;12.912;2023-05-08T03:31:41;102321.56;;;5.51;92.16
57668;BME280;43499;52.366;12.912;2023-05-08T03:32:45;102324.03;;;5.57;92.73
57668;BME280;43499;52.366;12.912;2023-05-08T03:33:48;102326.44;;;5.55;91.00
57668;BME280;43499;52.366;12.912;2023-05-08T03:34:51;102321.91;;;5.47;91.15
57668;BME280;43499;52.366;12.912;2023-05-08T03:35:53;102318.00;;;5.44;91.15
57668;BME280;43499;52.366;12.912;2023-05-08T03:36:55;102321.91;;;5.47;91.52
57668;BME280;43499;52.366;12.912;2023-05-08T03:37:57;102310.38;;;5.45;91.92
57668;BME280;43499;52.366;12.912;2023-05-08T03:38:59;102329.22;;;5.50;91.74
57668;BME280;43499;52.366;12.912;2023-05-08T03:40:00;102310.56;;;5.47;93.32
57668;BME280;43499;52.366;12.912;2023-05-08T03:41:01;102313.34;;;5.48;91.93
57668;BME280;43499;52.366;12.912;2023-05-08T03:42:03;102319.53;;;5.49;91.78
57668;BME280;43499;52.366;12.912;2023-05-08T03:43:08;102321.75;;;5.53;92.73
57668;BME280;43499;52.366;12.912;2023-05-08T03:44:09;102310.16;;;5.44;92.42
57668;BME280;43499;52.366;12.912;2023-05-08T03:45:12;102308.28;;;5.43;93.13
57668;BME280;43499;52.366;12.912;2023-05-08T03:46:15;102321.41;;;5.50;92.98
57668;BME280;43499;52.366;12.912;2023-05-08T03:47:17;102319.53;;;5.49;92.21
57668;BME280;43499;52.366;12.912;2023-05-08T03:48:18;102323.63;;;5.54;92.45
57668;BME280;43499;52.366;12.912;2023-05-08T03:49:24;102306.25;;;5.47;92.46
57668;BME280;43499;52.366;12.912;2023-05-08T03:50:26;102317.69;;;5.55;91.66
57668;BME280;43499;52.366;12.912;2023-05-08T03:51:28;102305.75;;;5.50;91.81
57668;BME280;43499;52.366;12.912;2023-05-08T03:52:31;102326.81;;;5.59;92.24
57668;BME280;43499;52.366;12.912;2023-05-08T03:53:32;102324.59;;;5.54;91.63
57668;BME280;43499;52.366;12.912;2023-05-08T03:54:34;102298.06;;;5.44;91.43
57668;BME280;43499;52.366;12.912;2023-05-08T03:55:35;102319.38;;;5.62;92.53
57668;BME280;43499;52.366;12.912;2023-05-08T03:56:39;102321.09;;;5.61;92.58
57668;BME280;43499;52.366;12.912;2023-05-08T03:58:12;102320.50;;;5.56;92.23
57668;BME280;43499;52.366;12.912;2023-05-08T03:59:32;102318.41;;;5.54;91.85
57668;BME280;43499;52.366;12.912;2023-05-08T04:02:36;102316.53;;;5.53;90.30
57668;BME280;43499;52.366;12.912;2023-05-08T04:03:52;102321.59;;;5.59;91.14
57668;BME280;43499;52.366;12.912;2023-05-08T04:05:06;102296.16;;;5.36;91.60
57668;BME280;43499;52.366;12.912;2023-05-08T04:06:15;102320.81;;;5.45;91.30
57668;BME280;43499;52.366;12.912;2023-05-08T04:07:37;102320.66;;;5.51;91.93
57668;BME280;43499;52.366;12.912;2023-05-08T04:08:48;102280.13;;;5.33;91.04
57668;BME280;43499;52.366;12.912;2023-05-08T04:10:08;102320.28;;;5.55;89.58
57668;BME280;43499;52.366;12.912;2023-05-08T04:11:19;102309.28;;;5.50;89.74
57668;BME280;43499;52.366;12.912;2023-05-08T04:12:39;102328.91;;;5.61;89.19
57668;BME280;43499;52.366;12.912;2023-05-08T04:13:48;102316.63;;;5.67;89.50
57668;BME280;43499;52.366;12.912;2023-05-08T04:14:55;102315.75;;;5.81;90.46
57668;BME280;43499;52.366;12.912;2023-05-08T04:16:06;102331.63;;;5.90;88.38
57668;BME280;43499;52.366;12.912;2023-05-08T04:17:13;102321.59;;;5.93;88.60
57668;BME280;43499;52.366;12.912;2023-05-08T04:18:17;102328.56;;;6.07;87.71
57668;BME280;43499;52.366;12.912;2023-05-08T04:19:23;102322.81;;;6.24;87.08
57668;BME280;43499;52.366;12.912;2023-05-08T04:20:28;102323.25;;;6.49;85.57
57668;BME280;43499;52.366;12.912;2023-05-08T04:21:33;102317.31;;;6.64;85.17
57668;BME280;43499;52.366;12.912;2023-05-08T04:22:37;102314.31;;;6.83;85.01
57668;BME280;43499;52.366;12.912;2023-05-08T04:23:40;102296.00;;;6.83;83.29
57668;BME280;43499;52.366;12.912;2023-05-08T04:24:44;102320.13;;;6.95;83.35
57668;BME280;43499;52.366;12.912;2023-05-08T04:25:50;102331.88;;;6.77;82.67
57668;BME280;43499;52.366;12.912;2023-05-08T04:26:52;102312.81;;;6.71;82.94
57668;BME280;43499;52.366;12.912;2023-05-08T04:27:54;102313.94;;;6.87;82.24
57668;BME280;43499;52.366;12.912;2023-05-08T04:28:57;102319.34;;;7.18;81.15
57668;BME280;43499;52.366;12.912;2023-05-08T04:29:58;102319.84;;;7.37;81.16
57668;BME280;43499;52.366;12.912;2023-05-08T04:31:00;102306.06;;;7.23;80.53
57668;BME280;43499;52.366;12.912;2023-05-08T04:32:04;102327.31;;;7.41;80.96
57668;BME280;43499;52.366;12.912;2023-05-08T04:33:06;102323.38;;;7.45;80.66
57668;BME280;43499;52.366;12.912;2023-05-08T04:34:09;102320.19;;;7.54;80.30
57668;BME280;43499;52.366;12.912;2023-05-08T04:35:10;102328.97;;;7.48;79.17
57668;BME280;43499;52.366;12.912;2023-05-08T04:36:13;102311.59;;;7.48;79.22
57668;BME280;43499;52.366;12.912;2023-05-08T04:37:26;102319.84;;;7.37;79.34
57668;BME280;43499;52.366;12.912;2023-05-08T04:38:28;102329.56;;;7.38;79.41
57668;BME280;43499;52.366;12.912;2023-05-08T04:39:29;102341.28;;;7.63;78.63
57668;BME280;43499;52.366;12.912;2023-05-08T04:40:31;102349.16;;;7.49;79.16
57668;BME280;43499;52.366;12.912;2023-05-08T04:41:32;102343.28;;;7.80;79.34
57668;BME280;43499;52.366;12.912;2023-05-08T04:42:35;102347.38;;;7.93;79.04
57668;BME280;43499;52.366;12.912;2023-05-08T04:43:38;102346.66;;;7.79;77.70
57668;BME280;43499;52.366;12.912;2023-05-08T04:44:41;102343.34;;;7.66;78.33
57668;BME280;43499;52.366;12.912;2023-05-08T04:45:42;102339.56;;;7.78;76.60
57668;BME280;43499;52.366;12.912;2023-05-08T04:46:43;102340.81;;;7.89;76.71
57668;BME280;43499;52.366;12.912;2023-05-08T04:47:44;102344.44;;;8.13;77.11
57668;BME280;43499;52.366;12.912;2023-05-08T04:48:45;102350.03;;;8.16;75.34
57668;BME280;43499;52.366;12.912;2023-05-08T04:49:46;102346.34;;;8.07;75.40
57668;BME280;43499;52.366;12.912;2023-05-08T04:50:47;102342.13;;;8.23;75.22
57668;BME280;43499;52.366;12.912;2023-05-08T04:51:48;102356.81;;;8.44;74.70
57668;BME280;43499;52.366;12.912;2023-05-08T04:52:49;102361.75;;;8.34;74.50
57668;BME280;43499;52.366;12.912;2023-05-08T04:53:50;102346.13;;;8.50;74.17
57668;BME280;43499;52.366;12.912;2023-05-08T04:54:51;102356.34;;;8.63;73.57
57668;BME280;43499;52.366;12.912;2023-05-08T04:55:53;102359.16;;;8.64;72.71
57668;BME280;43499;52.366;12.912;2023-05-08T04:56:54;102339.88;;;8.33;73.55
57668;BME280;43499;52.366;12.912;2023-05-08T04:57:55;102357.63;;;8.36;72.76
57668;BME280;43499;52.366;12.912;2023-05-08T04:58:56;102343.00;;;8.38;73.49
57668;BME280;43499;52.366;12.912;2023-05-08T04:59:57;102357.56;;;8.43;73.61
57668;BME280;43499;52.366;12.912;2023-05-08T05:01:01;102367.44;;;8.46;73.25
57668;BME280;43499;52.366;12.912;2023-05-08T05:02:03;102360.59;;;8.70;73.09
57668;BME280;43499;52.366;12.912;2023-05-08T05:03:06;102354.53;;;8.55;73.09
57668;BME280;43499;52.366;12.912;2023-05-08T05:04:07;102360.72;;;8.55;72.66
57668;BME280;43499;52.366;12.912;2023-05-08T05:05:08;102364.09;;;8.47;73.56
57668;BME280;43499;52.366;12.912;2023-05-08T05:06:09;102353.25;;;8.51;73.88
57668;BME280;43499;52.366;12.912;2023-05-08T05:07:10;102356.41;;;8.56;72.86
57668;BME280;43499;52.366;12.912;2023-05-08T05:08:12;102367.59;;;8.62;73.67
57668;BME280;43499;52.366;12.912;2023-05-08T05:09:13;102348.81;;;8.73;73.04
57668;BME280;43499;52.366;12.912;2023-05-08T05:10:14;102362.50;;;8.94;72.58
57668;BME280;43499;52.366;12.912;2023-05-08T05:11:16;102338.69;;;8.92;72.05
57668;BME280;43499;52.366;12.912;2023-05-08T05:12:17;102362.19;;;9.07;71.56
57668;BME280;43499;52.366;12.912;2023-05-08T05:13:18;102360.38;;;8.99;71.74
57668;BME280;43499;52.366;12.912;2023-05-08T05:14:19;102358.44;;;9.28;71.45
57668;BME280;43499;52.366;12.912;2023-05-08T05:15:20;102359.19;;;9.27;70.90
57668;BME280;43499;52.366;12.912;2023-05-08T05:16:22;102376.34;;;9.39;70.67
57668;BME280;43499;52.366;12.912;2023-05-08T05:17:23;102359.44;;;9.21;70.13
57668;BME280;43499;52.366;12.912;2023-05-08T05:18:24;102364.34;;;9.57;70.17
57668;BME280;43499;52.366;12.912;2023-05-08T05:19:28;102364.47;;;9.43;70.46
57668;BME280;43499;52.366;12.912;2023-05-08T05:20:29;102378.63;;;9.68;69.34
57668;BME280;43499;52.366;12.912;2023-05-08T05:21:31;102366.28;;;9.67;68.91
57668;BME280;43499;52.366;12.912;2023-05-08T05:22:32;102372.38;;;9.59;69.30
57668;BME280;43499;52.366;12.912;2023-05-08T05:23:33;102371.59;;;9.60;70.39
57668;BME280;43499;52.366;12.912;2023-05-08T05:24:34;102375.34;;;9.78;70.04
57668;BME280;43499;52.366;12.912;2023-05-08T05:25:36;102375.97;;;9.76;68.09
57668;BME280;43499;52.366;12.912;2023-05-08T05:26:37;102381.47;;;9.70;67.86
57668;BME280;43499;52.366;12.912;2023-05-08T05:27:38;102378.59;;;9.76;67.25
57668;BME280;43499;52.366;12.912;2023-05-08T05:28:40;102366.72;;;9.79;67.85
57668;BME280;43499;52.366;12.912;2023-05-08T05:29:42;102374.09;;;9.91;67.65
57668;BME280;43499;52.366;12.912;2023-05-08T05:30:46;102366.69;;;10.11;67.97
57668;BME280;43499;52.366;12.912;2023-05-08T05:31:47;102381.09;;;9.99;68.25
57668;BME280;43499;52.366;12.912;2023-05-08T05:32:48;102389.47;;;9.55;67.57
57668;BME280;43499;52.366;12.912;2023-05-08T05:33:49;102366.53;;;9.62;68.28
57668;BME280;43499;52.366;12.912;2023-05-08T05:34:50;102354.84;;;9.83;67.59
57668;BME280;43499;52.366;12.912;2023-05-08T05:35:52;102378.66;;;10.16;67.42
57668;BME280;43499;52.366;12.912;2023-05-08T05:36:53;102357.56;;;9.92;66.62
57668;BME280;43499;52.366;12.912;2023-05-08T05:37:54;102382.31;;;9.94;66.85
57668;BME280;43499;52.366;12.912;2023-05-08T05:38:56;102364.84;;;9.94;67.31
57668;BME280;43499;52.366;12.912;2023-05-08T05:39:57;102369.22;;;10.02;66.96
57668;BME280;43499;52.366;12.912;2023-05-08T05:40:58;102364.81;;;10.10;66.64
57668;BME280;43499;52.366;12.912;2023-05-08T05:41:59;102371.59;;;10.08;66.31
57668;BME280;43499;52.366;12.912;2023-05-08T05:43:00;102378.28;;;10.29;66.58
57668;BME280;43499;52.366;12.912;2023-05-08T05:44:02;102377.53;;;10.30;66.45
57668;BME280;43499;52.366;12.912;2023-05-08T05:45:03;102387.97;;;10.06;66.35
57668;BME280;43499;52.366;12.912;2023-05-08T05:46:07;102373.84;;;9.80;67.85
57668;BME280;43499;52.366;12.912;2023-05-08T05:47:09;102370.09;;;9.78;67.36